Time;durP1;ratioP1;P1;durP2;ratioP2;P2;SDS_P1;SDS_P2;PMS_P1;PMS_P2;Temp;Humidity;BMP_temperature;BMP_pressure;BME280_temperature;BME280_humidity;BME280_pressure;Samples;Min_cycle;Max_cycle;Signal;HPM_P1;HPM_P2
2023/07/17 00:02:58;;;;;;;9.45;4.60;;;18.00;99.90;;;;;;8197815;28;20062;-83
2023/07/17 00:06:59;;;;;;;9.77;5.18;;;17.80;99.90;;;;;;8196936;28;20110;-83
2023/07/17 00:10:59;;;;;;;5.78;4.63;;;17.50;99.90;;;;;;8200051;28;20023;-83
2023/07/17 00:15:00;;;;;;;8.20;5.55;;;17.50;99.90;;;;;;8198883;28;20087;-83
2023/07/17 00:19:00;;;;;;;6.25;4.30;;;17.40;99.90;;;;;;8215781;28;20575;-83
2023/07/17 00:23:01;;;;;;;10.10;5.00;;;17.40;99.90;;;;;;8205244;28;20031;-83
2023/07/17 00:27:02;;;;;;;8.45;4.88;;;17.60;99.90;;;;;;8213832;28;20038;-82
2023/07/17 00:31:02;;;;;;;8.43;5.13;;;17.60;99.90;;;;;;8199740;28;20023;-82
2023/07/17 00:35:03;;;;;;;7.15;4.93;;;17.80;99.90;;;;;;8198154;28;20028;-83
2023/07/17 00:39:04;;;;;;;6.20;5.13;;;17.70;99.90;;;;;;8198068;28;20033;-82
2023/07/17 00:43:09;;;;;;;10.93;5.45;;;17.70;99.90;;;;;;8200552;28;20042;-83
2023/07/17 00:47:10;;;;;;;7.22;5.28;;;18.00;99.90;;;;;;8195712;28;20082;-83
2023/07/17 00:51:11;;;;;;;9.27;4.90;;;18.30;99.90;;;;;;8188598;28;20023;-82
2023/07/17 00:55:12;;;;;;;7.88;5.13;;;18.50;99.90;;;;;;8197575;28;20019;-82
2023/07/17 00:59:13;;;;;;;7.47;5.55;;;18.60;99.90;;;;;;8191438;28;20031;-82
2023/07/17 01:03:14;;;;;;;11.30;6.18;;;18.30;99.90;;;;;;8197141;28;20397;-82
2023/07/17 01:07:15;;;;;;;8.88;6.43;;;18.00;99.90;;;;;;8197946;28;20086;-82
2023/07/17 01:11:16;;;;;;;13.35;6.30;;;17.70;99.90;;;;;;8197693;28;20098;-82
2023/07/17 01:15:16;;;;;;;13.23;6.05;;;18.10;99.90;;;;;;8192983;28;20086;-81
2023/07/17 01:19:17;;;;;;;16.20;5.85;;;18.40;99.90;;;;;;8198976;28;20037;-81
2023/07/17 01:23:17;;;;;;;10.20;6.50;;;18.40;99.90;;;;;;8205435;28;20226;-83
2023/07/17 01:27:18;;;;;;;10.40;7.10;;;18.00;99.90;;;;;;8219693;28;20055;-82
2023/07/17 01:31:19;;;;;;;8.52;7.13;;;17.90;99.90;;;;;;8219782;28;20027;-82
2023/07/17 01:35:19;;;;;;;11.98;7.40;;;17.70;99.90;;;;;;8197446;28;20023;-83
2023/07/17 01:39:20;;;;;;;12.57;7.43;;;17.60;99.90;;;;;;8219347;28;20024;-82
2023/07/17 01:43:20;;;;;;;14.57;8.07;;;17.50;99.90;;;;;;8195337;28;20122;-82
2023/07/17 01:47:21;;;;;;;17.13;7.75;;;17.60;99.90;;;;;;8203790;28;20476;-82
2023/07/17 01:51:21;;;;;;;11.02;6.80;;;17.60;99.90;;;;;;8202452;28;20066;-82
2023/07/17 01:55:22;;;;;;;11.20;7.00;;;17.80;99.90;;;;;;8187572;28;20019;-82
2023/07/17 01:59:23;;;;;;;11.55;7.35;;;17.70;99.90;;;;;;8203343;28;20023;-82
2023/07/17 02:03:23;;;;;;;9.45;7.07;;;17.70;99.90;;;;;;8200611;28;20022;-82
2023/07/17 02:07:24;;;;;;;13.27;7.70;;;17.70;99.90;;;;;;8206253;28;20497;-82
2023/07/17 02:11:27;;;;;;;10.50;6.68;;;17.70;99.90;;;;;;8203950;28;20034;-83
2023/07/17 02:15:28;;;;;;;11.88;7.60;;;17.90;99.90;;;;;;8217907;28;20024;-81
2023/07/17 02:19:29;;;;;;;10.25;7.40;;;17.70;99.90;;;;;;8197269;28;20520;-83
2023/07/17 02:23:29;;;;;;;10.98;7.22;;;18.00;99.90;;;;;;8218031;28;20035;-82
2023/07/17 02:27:30;;;;;;;14.52;8.32;;;17.80;99.90;;;;;;8257141;23;20076;-79
2023/07/17 02:31:30;;;;;;;11.60;8.30;;;17.40;99.90;;;;;;8325574;28;20414;-80
2023/07/17 02:35:31;;;;;;;16.25;8.93;;;17.20;99.90;;;;;;8297476;28;20014;-80
2023/07/17 02:39:31;;;;;;;14.68;9.13;;;17.10;99.90;;;;;;8276187;28;20024;-80
2023/07/17 02:43:32;;;;;;;17.25;9.95;;;17.10;99.90;;;;;;8282157;28;20093;-80
2023/07/17 02:47:32;;;;;;;15.85;10.32;;;17.20;99.90;;;;;;8266445;28;20033;-81
2023/07/17 02:51:33;;;;;;;18.33;8.55;;;17.40;99.90;;;;;;8251711;28;20040;-80
2023/07/17 02:55:33;;;;;;;18.08;8.77;;;17.50;99.90;;;;;;8265838;28;20503;-81
2023/07/17 02:59:34;;;;;;;11.73;8.10;;;17.70;99.90;;;;;;8269014;28;20022;-80
2023/07/17 03:03:34;;;;;;;11.13;7.85;;;18.30;99.90;;;;;;8270417;28;20087;-81
2023/07/17 03:07:40;;;;;;;20.15;8.98;;;18.40;99.90;;;;;;8270068;28;20026;-83
2023/07/17 03:11:41;;;;;;;13.38;9.05;;;18.20;99.90;;;;;;8270842;28;20022;-81
2023/07/17 03:15:41;;;;;;;13.05;8.60;;;18.00;99.90;;;;;;8267254;28;20033;-82
2023/07/17 03:19:42;;;;;;;9.90;7.45;;;18.00;99.90;;;;;;8275663;28;20032;-81
2023/07/17 03:23:42;;;;;;;10.05;6.82;;;17.90;99.90;;;;;;8284447;28;20033;-81
2023/07/17 03:27:43;;;;;;;10.13;5.22;;;17.70;99.90;;;;;;8267657;28;20042;-81
2023/07/17 03:31:43;;;;;;;9.73;4.80;;;17.50;99.90;;;;;;8268166;28;20058;-81
2023/07/17 03:35:44;;;;;;;12.45;5.00;;;17.30;99.90;;;;;;8284142;28;20023;-80
2023/07/17 03:39:44;;;;;;;8.95;5.75;;;17.20;99.90;;;;;;8267877;28;20034;-79
2023/07/17 03:43:45;;;;;;;10.57;5.50;;;16.80;99.90;;;;;;8282420;28;20034;-80
2023/07/17 03:47:45;;;;;;;8.73;5.47;;;16.80;99.90;;;;;;8280895;28;20495;-81
2023/07/17 03:51:46;;;;;;;8.40;5.75;;;16.90;99.90;;;;;;8265685;28;20361;-81
2023/07/17 03:55:46;;;;;;;10.05;5.68;;;16.70;99.90;;;;;;8263991;28;20034;-81
2023/07/17 03:59:53;;;;;;;11.95;6.78;;;16.60;99.90;;;;;;8281097;28;20058;-81
2023/07/17 04:03:53;;;;;;;13.23;7.05;;;16.50;99.90;;;;;;8264344;28;20547;-81
2023/07/17 04:07:54;;;;;;;15.68;6.43;;;16.50;99.90;;;;;;8280902;28;20034;-80
2023/07/17 04:11:54;;;;;;;12.30;6.88;;;16.50;99.90;;;;;;8280220;28;20015;-80
2023/07/17 04:15:55;;;;;;;14.98;6.00;;;16.50;99.90;;;;;;8263152;28;20042;-80
2023/07/17 04:19:55;;;;;;;15.10;6.32;;;16.50;99.90;;;;;;8279837;28;20027;-81
2023/07/17 04:23:56;;;;;;;13.18;6.40;;;16.50;99.90;;;;;;8263308;28;20030;-79
2023/07/17 04:27:56;;;;;;;9.48;6.68;;;16.60;99.90;;;;;;8276622;28;20081;-79
2023/07/17 04:31:57;;;;;;;16.00;6.80;;;16.60;99.90;;;;;;8264509;28;20022;-80
2023/07/17 04:35:58;;;;;;;15.00;6.85;;;16.60;99.90;;;;;;8264081;28;20022;-81
2023/07/17 04:39:59;;;;;;;14.50;7.32;;;16.50;99.90;;;;;;8264581;28;20512;-81
2023/07/17 04:43:59;;;;;;;14.90;7.97;;;16.60;99.90;;;;;;8262605;28;20448;-81
2023/07/17 04:48:09;;;;;;;14.40;7.50;;;16.70;99.90;;;;;;8261905;28;20034;-80
2023/07/17 04:52:10;;;;;;;9.70;5.90;;;16.80;99.90;;;;;;8262863;28;20036;-81
2023/07/17 04:56:10;;;;;;;13.13;7.07;;;16.80;99.90;;;;;;8256140;28;20261;-82
2023/07/17 05:00:11;;;;;;;11.65;6.88;;;16.90;99.90;;;;;;8284029;28;20026;-83
2023/07/17 05:04:12;;;;;;;13.73;7.47;;;16.90;99.90;;;;;;8270264;28;20472;-82
2023/07/17 05:08:13;;;;;;;10.55;7.45;;;17.20;99.90;;;;;;8277406;28;20022;-82
2023/07/17 05:12:13;;;;;;;9.82;6.70;;;17.40;99.90;;;;;;8265961;28;20037;-82
2023/07/17 05:16:14;;;;;;;12.50;6.85;;;17.60;99.90;;;;;;8280024;28;20500;-81
2023/07/17 05:20:15;;;;;;;15.75;6.82;;;17.80;99.90;;;;;;8266634;28;20033;-83
2023/07/17 05:24:16;;;;;;;10.32;6.68;;;17.70;99.90;;;;;;8280458;28;20620;-82
2023/07/17 05:28:16;;;;;;;10.80;7.28;;;17.60;99.90;;;;;;8265954;28;20510;-82
2023/07/17 05:32:17;;;;;;;9.55;5.72;;;18.00;99.90;;;;;;8263544;28;20030;-82
2023/07/17 05:36:17;;;;;;;8.93;5.82;;;19.10;99.90;;;;;;8263491;28;20065;-82
2023/07/17 05:40:18;;;;;;;7.53;5.00;;;20.40;99.90;;;;;;8264094;28;20034;-81
2023/07/17 05:44:18;;;;;;;6.35;4.57;;;21.60;99.90;;;;;;8276703;28;20038;-82
2023/07/17 05:48:19;;;;;;;5.68;4.80;;;21.40;99.90;;;;;;8263813;28;20077;-80
2023/07/17 05:52:19;;;;;;;8.52;4.90;;;21.30;99.90;;;;;;8263045;28;20564;-79
2023/07/17 05:56:20;;;;;;;8.63;5.20;;;20.40;99.90;;;;;;8261239;28;20026;-80
2023/07/17 06:00:20;;;;;;;7.47;5.30;;;21.10;99.90;;;;;;8262505;28;20026;-79
2023/07/17 06:04:21;;;;;;;6.32;4.10;;;21.90;99.90;;;;;;8261811;28;20046;-79
2023/07/17 06:08:21;;;;;;;8.85;4.78;;;22.40;99.90;;;;;;8266443;28;20081;-79
2023/07/17 06:12:22;;;;;;;6.05;4.70;;;23.70;99.90;;;;;;8282904;28;20022;-79
2023/07/17 06:16:22;;;;;;;9.40;4.65;;;24.30;99.90;;;;;;8267113;28;20026;-79
2023/07/17 06:20:23;;;;;;;8.80;4.47;;;24.80;99.90;;;;;;8262980;28;20566;-79
2023/07/17 06:24:23;;;;;;;8.13;4.90;;;24.60;99.90;;;;;;8282261;28;20026;-79
2023/07/17 06:28:24;;;;;;;9.85;5.15;;;24.80;99.90;;;;;;8268517;28;20038;-80
2023/07/17 06:32:24;;;;;;;7.95;5.25;;;25.40;99.90;;;;;;8283116;28;20027;-80
2023/07/17 06:36:25;;;;;;;8.02;5.35;;;25.70;99.90;;;;;;8287681;28;20077;-80
2023/07/17 06:40:26;;;;;;;8.15;5.57;;;25.70;99.90;;;;;;8266091;28;20042;-83
2023/07/17 06:44:26;;;;;;;9.27;5.78;;;25.50;99.90;;;;;;8267752;28;20597;-82
2023/07/17 06:48:27;;;;;;;8.60;5.43;;;24.80;99.90;;;;;;8265504;28;20033;-83
2023/07/17 06:52:27;;;;;;;6.57;5.03;;;24.40;99.90;;;;;;8290642;28;20049;-86
2023/07/17 06:56:28;;;;;;;10.10;5.60;;;24.30;99.90;;;;;;8272187;28;20023;-86
2023/07/17 07:00:28;;;;;;;6.45;5.18;;;25.20;99.90;;;;;;8264677;28;20217;-86
2023/07/17 07:04:29;;;;;;;7.82;4.47;;;26.10;99.90;;;;;;8278052;28;20030;-84
2023/07/17 07:08:31;;;;;;;6.80;4.70;;;26.60;99.90;;;;;;8261728;28;20031;-84
2023/07/17 07:12:31;;;;;;;6.68;4.20;;;27.00;99.90;;;;;;8294173;28;20023;-86
2023/07/17 07:16:32;;;;;;;7.03;4.00;;;27.20;99.90;;;;;;8263603;28;20085;-85
2023/07/17 07:20:32;;;;;;;7.28;4.10;;;27.50;99.90;;;;;;8261550;28;20037;-88
2023/07/17 07:24:33;;;;;;;5.35;4.05;;;27.30;99.90;;;;;;8268258;28;20580;-86
2023/07/17 07:28:33;;;;;;;5.25;3.20;;;27.10;99.90;;;;;;8260462;28;20026;-87
2023/07/17 07:32:34;;;;;;;5.63;3.80;;;27.30;99.90;;;;;;8261376;28;20058;-88
2023/07/17 07:36:34;;;;;;;6.50;3.60;;;27.70;99.90;;;;;;8277133;28;20022;-85
2023/07/17 07:40:35;;;;;;;6.47;3.38;;;27.90;99.90;;;;;;8260195;28;20117;-85
2023/07/17 07:44:36;;;;;;;6.97;3.90;;;27.80;99.90;;;;;;8260317;28;20396;-87
2023/07/17 07:48:45;;;;;;;5.18;3.50;;;28.00;99.90;;;;;;8258333;28;20026;-86
2023/07/17 07:52:45;;;;;;;6.47;3.33;;;27.10;99.90;;;;;;8258316;28;20054;-85
2023/07/17 07:56:46;;;;;;;5.85;3.30;;;27.10;99.90;;;;;;8265699;28;20488;-85
2023/07/17 08:00:47;;;;;;;5.50;3.15;;;27.50;99.90;;;;;;8259922;28;20470;-87
2023/07/17 08:04:47;;;;;;;5.93;3.33;;;27.70;99.90;;;;;;8282792;28;20026;-86
2023/07/17 08:08:48;;;;;;;5.35;2.90;;;27.90;99.90;;;;;;8270378;28;20027;-87
2023/07/17 08:12:48;;;;;;;6.30;3.40;;;27.80;99.90;;;;;;8276571;28;20056;-83
2023/07/17 08:16:49;;;;;;;5.88;3.33;;;27.80;99.90;;;;;;8263556;28;20034;-83
2023/07/17 08:20:50;;;;;;;5.75;3.05;;;27.40;99.90;;;;;;8284309;28;20113;-84
2023/07/17 08:24:51;;;;;;;7.00;3.63;;;27.40;99.90;;;;;;8255854;28;20030;-83
2023/07/17 08:28:51;;;;;;;5.45;3.25;;;27.50;99.90;;;;;;8300543;23;20047;-83
2023/07/17 08:32:52;;;;;;;6.20;3.10;;;27.90;99.90;;;;;;8297418;28;20108;-83
2023/07/17 08:36:52;;;;;;;5.55;3.42;;;28.60;99.90;;;;;;8289406;28;20038;-83
2023/07/17 08:40:53;;;;;;;5.82;3.60;;;29.20;99.90;;;;;;8286385;28;20116;-82
2023/07/17 08:44:56;;;;;;;6.32;2.88;;;29.10;99.90;;;;;;8292723;28;20025;-82
2023/07/17 08:48:57;;;;;;;5.18;2.88;;;29.20;99.90;;;;;;8297835;28;20088;-82
2023/07/17 08:52:58;;;;;;;3.83;2.85;;;28.70;99.90;;;;;;8294028;28;20033;-80
2023/07/17 08:57:03;;;;;;;5.85;3.08;;;27.90;99.90;;;;;;8289908;28;20034;-80
2023/07/17 09:01:05;;;;;;;5.30;3.28;;;27.50;99.90;;;;;;8301532;28;20029;-80
2023/07/17 09:05:07;;;;;;;4.97;3.00;;;27.40;99.90;;;;;;8289874;28;20046;-80
2023/07/17 09:09:10;;;;;;;7.03;3.28;;;28.20;99.90;;;;;;8292573;28;20045;-79
2023/07/17 09:13:12;;;;;;;6.55;3.03;;;29.00;99.90;;;;;;8291952;28;20054;-79
2023/07/17 09:17:13;;;;;;;6.78;3.00;;;28.60;99.90;;;;;;8289221;28;20514;-80
2023/07/17 09:21:15;;;;;;;5.20;3.63;;;27.90;99.90;;;;;;8291534;28;20109;-79
2023/07/17 09:25:16;;;;;;;5.93;3.78;;;27.70;99.90;;;;;;8296940;28;20026;-81
2023/07/17 09:29:22;;;;;;;5.30;3.17;;;26.70;99.90;;;;;;8307240;28;20124;-79
2023/07/17 09:33:25;;;;;;;4.38;3.03;;;26.90;99.90;;;;;;8288257;28;20026;-81
2023/07/17 09:37:31;;;;;;;5.97;3.35;;;27.10;99.90;;;;;;8285193;28;20038;-80
2023/07/17 09:41:31;;;;;;;5.10;3.28;;;27.50;99.90;;;;;;8295225;28;20026;-80
2023/07/17 09:45:33;;;;;;;6.20;2.97;;;28.10;99.90;;;;;;8303345;28;20026;-79
2023/07/17 09:49:34;;;;;;;8.15;3.20;;;28.20;99.90;;;;;;8293661;28;20033;-80
2023/07/17 09:53:35;;;;;;;4.93;2.97;;;28.00;99.90;;;;;;8288305;28;20062;-80
2023/07/17 09:57:39;;;;;;;7.82;3.60;;;28.60;99.90;;;;;;8292879;28;20040;-81
2023/07/17 10:01:45;;;;;;;6.97;3.47;;;28.60;99.90;;;;;;8293026;28;20033;-78
2023/07/17 10:05:46;;;;;;;4.90;3.00;;;28.50;99.90;;;;;;8295497;28;20137;-81
2023/07/17 10:09:48;;;;;;;6.95;3.50;;;28.20;99.90;;;;;;8285892;28;20026;-81
2023/07/17 10:13:49;;;;;;;5.47;3.17;;;28.30;99.90;;;;;;8294269;28;20095;-81
2023/07/17 10:17:59;;;;;;;3.92;2.97;;;29.10;99.90;;;;;;8292258;28;20029;-80
2023/07/17 10:22:00;;;;;;;4.65;3.05;;;29.20;99.90;;;;;;8310733;28;20042;-78
2023/07/17 10:26:11;;;;;;;4.97;3.45;;;29.00;99.90;;;;;;8293463;28;20041;-79
2023/07/17 10:30:32;;;;;;;4.50;3.08;;;28.30;99.90;;;;;;8303562;28;20037;-80
2023/07/17 10:34:52;;;;;;;5.65;3.20;;;28.50;99.90;;;;;;8296020;28;20021;-80
2023/07/17 10:38:55;;;;;;;5.03;3.10;;;28.40;99.90;;;;;;8300764;28;20657;-78
2023/07/17 10:43:13;;;;;;;5.57;3.17;;;29.20;99.90;;;;;;8301923;28;20076;-80
2023/07/17 10:47:13;;;;;;;5.18;2.65;;;29.10;99.90;;;;;;8288398;28;20399;-79
2023/07/17 10:51:15;;;;;;;4.05;3.25;;;29.30;99.90;;;;;;8294462;28;20048;-81
2023/07/17 10:55:16;;;;;;;6.60;3.13;;;29.20;99.90;;;;;;8295123;28;20101;-80
2023/07/17 10:59:17;;;;;;;8.65;3.63;;;28.50;99.90;;;;;;8296409;28;20693;-80
2023/07/17 11:03:22;;;;;;;8.20;3.58;;;28.90;99.90;;;;;;8310741;28;20061;-81
2023/07/17 11:07:23;;;;;;;4.30;2.95;;;28.40;99.90;;;;;;8287318;28;20057;-79
2023/07/17 11:11:24;;;;;;;6.53;3.13;;;27.70;99.90;;;;;;8292752;28;20030;-79
2023/07/17 11:15:25;;;;;;;6.47;3.33;;;28.30;99.90;;;;;;8302004;28;20407;-80
2023/07/17 11:19:25;;;;;;;5.03;2.92;;;29.50;99.90;;;;;;8298105;28;20037;-79
2023/07/17 11:23:26;;;;;;;6.90;3.45;;;29.20;98.60;;;;;;8294010;28;20026;-79
2023/07/17 11:27:26;;;;;;;5.82;2.97;;;29.30;99.90;;;;;;8290595;28;20496;-80
2023/07/17 11:31:35;;;;;;;5.22;3.00;;;29.60;99.90;;;;;;8310245;28;20037;-81
2023/07/17 11:35:43;;;;;;;5.78;3.20;;;31.10;96.40;;;;;;8292391;28;20086;-80
2023/07/17 11:39:43;;;;;;;6.68;3.42;;;32.10;98.00;;;;;;8294377;28;20022;-79
2023/07/17 11:43:55;;;;;;;6.38;3.22;;;31.00;96.10;;;;;;8293004;28;20026;-79
2023/07/17 11:47:57;;;;;;;10.80;3.45;;;30.80;96.50;;;;;;8290125;28;20034;-80
2023/07/17 11:51:57;;;;;;;4.85;3.08;;;29.90;98.00;;;;;;8293897;28;20071;-80
2023/07/17 11:56:02;;;;;;;4.10;2.90;;;31.10;98.70;;;;;;8293245;28;20036;-80
2023/07/17 12:00:10;;;;;;;7.75;3.15;;;31.60;96.60;;;;;;8290489;28;20085;-81
2023/07/17 12:04:35;;;;;;;5.95;3.20;;;32.80;93.10;;;;;;8292190;28;20017;-82
2023/07/17 12:08:37;;;;;;;4.00;3.03;;;33.10;90.00;;;;;;8294196;28;20110;-79
2023/07/17 12:12:39;;;;;;;7.05;3.30;;;33.10;91.40;;;;;;8296986;28;20165;-80
2023/07/17 12:16:40;;;;;;;4.75;3.00;;;31.90;92.40;;;;;;8297958;28;20088;-80
2023/07/17 12:20:41;;;;;;;7.05;3.55;;;30.90;94.60;;;;;;8302194;28;20026;-80
2023/07/17 12:24:41;;;;;;;5.40;3.00;;;30.60;96.90;;;;;;8308016;28;20032;-80
2023/07/17 12:28:42;;;;;;;5.97;3.53;;;32.80;91.40;;;;;;8293237;28;20402;-80
2023/07/17 12:32:43;;;;;;;5.72;3.28;;;34.90;89.40;;;;;;8289764;28;20057;-78
2023/07/17 12:36:44;;;;;;;5.20;3.17;;;35.90;80.30;;;;;;8296933;28;20102;-81
2023/07/17 12:40:44;;;;;;;4.30;3.03;;;35.90;73.90;;;;;;8287379;28;20096;-81
2023/07/17 12:44:45;;;;;;;3.78;2.88;;;36.90;68.80;;;;;;8286044;28;20030;-81
2023/07/17 12:48:45;;;;;;;3.63;2.70;;;37.30;70.60;;;;;;8305152;28;20034;-82
2023/07/17 12:52:46;;;;;;;4.45;3.10;;;34.70;76.20;;;;;;8292523;28;20064;-81
2023/07/17 12:56:46;;;;;;;5.70;3.33;;;33.50;75.10;;;;;;8307421;28;20030;-81
2023/07/17 13:00:47;;;;;;;6.25;3.67;;;32.20;74.60;;;;;;8292256;28;20049;-81
2023/07/17 13:04:47;;;;;;;3.67;2.70;;;30.90;82.30;;;;;;8290015;28;20045;-81
2023/07/17 13:08:49;;;;;;;4.70;3.10;;;30.80;88.50;;;;;;8291688;28;20115;-82
2023/07/17 13:12:50;;;;;;;3.90;3.17;;;31.50;85.80;;;;;;8306892;28;20021;-81
2023/07/17 13:16:50;;;;;;;4.22;2.85;;;33.90;79.30;;;;;;8289252;28;20083;-79
2023/07/17 13:20:51;;;;;;;3.97;2.60;;;34.30;75.60;;;;;;8300532;28;20036;-80
2023/07/17 13:24:51;;;;;;;4.18;2.78;;;35.10;78.40;;;;;;8310680;28;20033;-79
2023/07/17 13:28:52;;;;;;;5.10;3.20;;;36.10;66.70;;;;;;8299106;28;20090;-82
2023/07/17 13:32:52;;;;;;;7.15;3.20;;;33.90;68.30;;;;;;8301049;28;20030;-81
2023/07/17 13:36:54;;;;;;;4.38;3.03;;;31.80;73.20;;;;;;8318500;28;20034;-82
2023/07/17 13:40:55;;;;;;;3.97;3.17;;;31.00;83.30;;;;;;8330846;28;20022;-81
2023/07/17 13:44:59;;;;;;;3.55;3.22;;;31.10;80.90;;;;;;8293734;28;20044;-81
2023/07/17 13:49:01;;;;;;;5.57;3.55;;;30.60;80.60;;;;;;8294919;28;20034;-81
2023/07/17 13:53:01;;;;;;;4.78;3.10;;;30.30;84.70;;;;;;8293613;28;20040;-80
2023/07/17 13:57:02;;;;;;;3.42;3.13;;;29.90;86.20;;;;;;8294031;28;20030;-80
2023/07/17 14:01:02;;;;;;;7.55;3.65;;;28.80;90.20;;;;;;8296468;28;20040;-81
2023/07/17 14:05:03;;;;;;;5.82;3.10;;;28.80;90.10;;;;;;8304804;28;20083;-80
2023/07/17 14:09:05;;;;;;;4.35;3.20;;;30.30;80.20;;;;;;8304022;28;20026;-81
2023/07/17 14:13:05;;;;;;;5.10;3.10;;;32.90;80.70;;;;;;8298708;28;20028;-81
2023/07/17 14:17:06;;;;;;;8.15;3.30;;;34.60;72.50;;;;;;8299689;28;20033;-81
2023/07/17 14:21:07;;;;;;;4.18;3.20;;;34.80;75.90;;;;;;8296252;28;20030;-80
2023/07/17 14:25:07;;;;;;;4.80;3.10;;;34.40;73.50;;;;;;8293879;28;20025;-82
2023/07/17 14:29:08;;;;;;;5.15;3.40;;;33.50;72.10;;;;;;8290674;28;20129;-83
2023/07/17 14:33:08;;;;;;;5.30;3.20;;;33.20;72.30;;;;;;8294549;28;20073;-83
2023/07/17 14:37:09;;;;;;;5.72;3.33;;;34.40;71.40;;;;;;8293969;28;20117;-84
2023/07/17 14:41:10;;;;;;;4.28;3.22;;;34.00;69.20;;;;;;8291111;28;20499;-84
2023/07/17 14:45:10;;;;;;;5.63;3.20;;;34.60;75.80;;;;;;8298344;28;20061;-84
2023/07/17 14:49:10;;;;;;;6.65;3.65;;;35.50;69.10;;;;;;8296240;28;20044;-84
2023/07/17 14:53:11;;;;;;;4.80;3.38;;;35.20;65.20;;;;;;8287722;28;20470;-83
2023/07/17 14:57:13;;;;;;;5.28;3.05;;;36.20;66.50;;;;;;8298249;28;20033;-83
2023/07/17 15:01:14;;;;;;;4.03;3.35;;;36.70;63.70;;;;;;8295996;28;20693;-84
2023/07/17 15:05:14;;;;;;;6.43;3.40;;;37.00;60.20;;;;;;8302107;28;20034;-84
2023/07/17 15:09:15;;;;;;;4.43;2.92;;;36.90;69.10;;;;;;8289040;28;20065;-83
2023/07/17 15:13:15;;;;;;;4.15;3.42;;;37.90;58.70;;;;;;8293055;28;20403;-85
2023/07/17 15:17:16;;;;;;;5.22;3.17;;;37.40;62.00;;;;;;8305598;28;20037;-82
2023/07/17 15:21:17;;;;;;;5.85;3.03;;;37.70;59.70;;;;;;8293405;28;20026;-83
2023/07/17 15:25:17;;;;;;;6.03;3.00;;;35.70;60.00;;;;;;8287729;28;20068;-83
2023/07/17 15:29:18;;;;;;;5.30;3.33;;;34.80;66.80;;;;;;8286908;28;20632;-83
2023/07/17 15:33:18;;;;;;;5.53;3.42;;;34.80;68.40;;;;;;8295706;28;20056;-83
2023/07/17 15:37:19;;;;;;;5.53;3.67;;;35.00;63.20;;;;;;8290396;28;20458;-85
2023/07/17 15:41:19;;;;;;;5.95;3.60;;;35.20;66.70;;;;;;8290725;28;20030;-82
2023/07/17 15:45:23;;;;;;;5.75;4.13;;;34.70;64.50;;;;;;8293622;28;20026;-83
2023/07/17 15:49:23;;;;;;;6.28;4.03;;;33.10;66.70;;;;;;8291056;28;20038;-83
2023/07/17 15:53:24;;;;;;;5.38;3.60;;;31.80;73.10;;;;;;8307816;28;20081;-83
2023/07/17 15:57:25;;;;;;;6.60;3.97;;;31.00;74.90;;;;;;8294189;28;20079;-83
2023/07/17 16:01:25;;;;;;;9.13;4.28;;;29.80;81.70;;;;;;8294137;28;20022;-84
2023/07/17 16:05:26;;;;;;;6.30;3.70;;;29.30;81.00;;;;;;8290359;28;20033;-83
2023/07/17 16:09:27;;;;;;;7.47;3.60;;;29.20;85.20;;;;;;8288218;28;20025;-82
2023/07/17 16:13:27;;;;;;;8.25;3.30;;;29.00;85.20;;;;;;8309397;28;20029;-83
2023/07/17 16:17:28;;;;;;;4.82;3.70;;;28.70;86.20;;;;;;8283578;28;20060;-82
2023/07/17 16:21:29;;;;;;;7.53;3.92;;;28.50;86.80;;;;;;8291278;28;20633;-83
2023/07/17 16:25:29;;;;;;;6.53;3.90;;;28.00;92.10;;;;;;8290597;28;20065;-83
2023/07/17 16:29:30;;;;;;;7.07;4.35;;;27.80;90.70;;;;;;8289110;28;20038;-83
2023/07/17 16:33:30;;;;;;;5.28;4.00;;;27.60;91.60;;;;;;8282015;28;20057;-82
2023/07/17 16:37:31;;;;;;;9.98;4.00;;;27.80;91.50;;;;;;8285805;28;20038;-83
2023/07/17 16:41:31;;;;;;;7.75;3.92;;;27.90;90.30;;;;;;8290082;28;20037;-83
2023/07/17 16:45:32;;;;;;;8.02;4.18;;;27.90;91.50;;;;;;8284302;28;20030;-83
2023/07/17 16:49:32;;;;;;;5.97;4.03;;;28.10;91.20;;;;;;8295094;28;20033;-83
2023/07/17 16:53:33;;;;;;;6.68;4.18;;;27.80;89.80;;;;;;8293963;28;20544;-83
2023/07/17 16:57:33;;;;;;;5.90;3.72;;;27.50;92.70;;;;;;8292866;28;20488;-84
2023/07/17 17:01:34;;;;;;;7.10;4.22;;;27.30;92.70;;;;;;8296273;28;20037;-83
2023/07/17 17:05:35;;;;;;;7.30;4.22;;;27.30;91.40;;;;;;8288680;28;20022;-83
2023/07/17 17:09:35;;;;;;;7.70;4.32;;;27.30;91.60;;;;;;8285817;28;20543;-85
2023/07/17 17:13:36;;;;;;;7.28;4.05;;;26.90;95.30;;;;;;8289266;28;20022;-85
2023/07/17 17:17:37;;;;;;;5.38;3.80;;;26.70;97.40;;;;;;8291520;28;20064;-83
2023/07/17 17:21:38;;;;;;;7.72;4.32;;;26.50;97.80;;;;;;8291161;28;20049;-85
2023/07/17 17:25:39;;;;;;;12.68;4.38;;;26.50;94.20;;;;;;8290971;28;20034;-86
2023/07/17 17:29:40;;;;;;;6.50;4.50;;;26.40;95.50;;;;;;8301000;28;20029;-85
2023/07/17 17:33:40;;;;;;;8.18;4.45;;;26.60;98.60;;;;;;8287249;28;20505;-85
2023/07/17 17:37:41;;;;;;;7.20;4.10;;;26.30;96.80;;;;;;8281972;28;20116;-85
2023/07/17 17:41:42;;;;;;;5.85;3.83;;;25.80;94.90;;;;;;8292026;28;20026;-85
2023/07/17 17:45:44;;;;;;;7.57;4.20;;;25.30;93.90;;;;;;8285432;28;20026;-84
2023/07/17 17:49:45;;;;;;;5.40;4.35;;;24.90;96.20;;;;;;8280059;28;20044;-85
2023/07/17 17:53:45;;;;;;;5.93;4.03;;;24.70;95.20;;;;;;8289641;28;20026;-83
2023/07/17 17:57:47;;;;;;;6.13;4.22;;;24.70;96.60;;;;;;8287279;28;20026;-85
2023/07/17 18:01:47;;;;;;;5.72;4.20;;;24.70;94.90;;;;;;8290653;28;20094;-84
2023/07/17 18:05:48;;;;;;;6.15;4.38;;;24.40;96.10;;;;;;8310087;28;20022;-84
2023/07/17 18:09:49;;;;;;;6.55;5.00;;;24.40;98.90;;;;;;8291504;28;20547;-84
2023/07/17 18:13:49;;;;;;;8.18;4.57;;;24.10;99.30;;;;;;8295709;28;20049;-84
2023/07/17 18:17:50;;;;;;;5.60;4.30;;;23.90;99.90;;;;;;8307496;28;20021;-82
2023/07/17 18:21:51;;;;;;;8.23;4.43;;;23.80;99.90;;;;;;8296673;28;20655;-82
2023/07/17 18:25:51;;;;;;;8.05;4.53;;;23.50;99.90;;;;;;8315875;28;20029;-82
2023/07/17 18:29:52;;;;;;;6.28;4.10;;;23.50;99.90;;;;;;8289484;28;20026;-82
2023/07/17 18:33:52;;;;;;;8.13;4.63;;;23.20;99.90;;;;;;8288912;28;20026;-82
2023/07/17 18:37:53;;;;;;;6.45;4.38;;;23.20;99.90;;;;;;8298077;28;20026;-82
2023/07/17 18:41:54;;;;;;;6.65;4.47;;;23.10;99.90;;;;;;8296312;28;20037;-81
2023/07/17 18:45:54;;;;;;;7.68;4.70;;;22.90;99.90;;;;;;8292599;28;20033;-82
2023/07/17 18:49:55;;;;;;;7.28;4.57;;;23.00;99.90;;;;;;8290983;28;20057;-82
2023/07/17 18:53:55;;;;;;;8.55;4.72;;;22.70;99.90;;;;;;8288415;28;20514;-82
2023/07/17 18:57:56;;;;;;;8.65;4.47;;;22.50;99.90;;;;;;8296429;28;20496;-81
2023/07/17 19:01:56;;;;;;;6.38;4.40;;;22.60;99.90;;;;;;8295314;28;20511;-82
2023/07/17 19:05:57;;;;;;;7.85;4.50;;;22.60;99.90;;;;;;8280581;28;20068;-81
2023/07/17 19:09:57;;;;;;;6.90;4.32;;;22.60;99.90;;;;;;8286584;28;20519;-81
2023/07/17 19:13:58;;;;;;;7.05;4.50;;;22.50;99.90;;;;;;8296332;28;20275;-81
2023/07/17 19:17:58;;;;;;;5.60;4.22;;;22.60;99.90;;;;;;8290431;28;20022;-81
2023/07/17 19:21:59;;;;;;;7.80;4.40;;;22.30;99.90;;;;;;8296659;28;20053;-83
2023/07/17 19:26:00;;;;;;;9.40;6.03;;;22.20;99.90;;;;;;8291397;28;20670;-81
2023/07/17 19:30:00;;;;;;;10.10;5.38;;;22.10;99.90;;;;;;8294292;28;20026;-81
2023/07/17 19:34:01;;;;;;;7.40;4.60;;;22.10;99.90;;;;;;8295299;28;20041;-82
2023/07/17 19:38:02;;;;;;;8.02;5.13;;;22.00;99.90;;;;;;8283968;28;20073;-82
2023/07/17 19:42:03;;;;;;;7.22;4.95;;;21.80;99.90;;;;;;8297374;28;20030;-81
2023/07/17 19:46:03;;;;;;;6.63;5.40;;;21.70;99.90;;;;;;8295113;28;20113;-81
2023/07/17 19:50:04;;;;;;;9.32;5.05;;;21.60;99.90;;;;;;8286695;28;20044;-82
2023/07/17 19:54:05;;;;;;;7.97;4.80;;;21.30;99.90;;;;;;8293990;28;20021;-82
2023/07/17 19:58:06;;;;;;;8.27;4.97;;;21.10;99.90;;;;;;8290274;28;20036;-81
2023/07/17 20:02:07;;;;;;;10.20;5.00;;;21.30;99.90;;;;;;8295002;28;20115;-81
2023/07/17 20:06:09;;;;;;;9.95;5.15;;;21.60;99.90;;;;;;8294875;28;20022;-81
2023/07/17 20:10:10;;;;;;;8.85;5.50;;;21.60;99.90;;;;;;8294149;28;20037;-81
2023/07/17 20:14:10;;;;;;;6.43;5.07;;;21.40;99.90;;;;;;8294903;28;20029;-82
2023/07/17 20:18:11;;;;;;;9.25;5.10;;;21.30;99.90;;;;;;8294209;28;20026;-81
2023/07/17 20:22:11;;;;;;;9.32;5.32;;;21.60;99.90;;;;;;8293259;28;20026;-81
2023/07/17 20:26:12;;;;;;;7.82;5.25;;;21.50;99.90;;;;;;8292895;28;20052;-81
2023/07/17 20:30:14;;;;;;;7.35;5.15;;;21.10;99.90;;;;;;8291774;28;20030;-82
2023/07/17 20:34:15;;;;;;;8.77;5.10;;;20.90;99.90;;;;;;8280465;28;20026;-82
2023/07/17 20:38:19;;;;;;;11.30;5.80;;;20.90;99.90;;;;;;8284900;28;20030;-82
2023/07/17 20:46:39;;;;;;;7.20;5.20;;;21.00;99.90;;;;;;8289293;28;20593;-81
2023/07/17 20:50:59;;;;;;;10.45;5.30;;;21.10;99.90;;;;;;8293512;28;20018;-82
2023/07/17 20:54:59;;;;;;;11.48;5.70;;;20.90;99.90;;;;;;8287414;28;20019;-82
2023/07/17 20:59:00;;;;;;;10.68;5.22;;;20.80;99.90;;;;;;8290564;28;20030;-84